createdAt,value
2019-05-03T00:00:02.699Z,5.4
2019-05-03T00:05:02.361Z,5.4
2019-05-03T00:10:02.824Z,5.3
2019-05-03T00:15:02.680Z,5.3
2019-05-03T00:20:02.296Z,5.3
2019-05-03T00:25:05.746Z,5.2
2019-05-03T00:30:02.779Z,5.2
2019-05-03T00:35:01.979Z,5.2
2019-05-03T00:40:01.971Z,5.1
2019-05-03T00:45:02.356Z,5.1
2019-05-03T00:50:02.768Z,5
2019-05-03T00:55:02.179Z,5
2019-05-03T01:00:02.348Z,5
2019-05-03T01:05:02.804Z,4.9
2019-05-03T01:10:02.599Z,4.9
2019-05-03T01:15:02.147Z,4.9
2019-05-03T01:20:02.725Z,4.8
2019-05-03T01:25:02.791Z,4.8
2019-05-03T01:30:02.803Z,4.7
2019-05-03T01:35:03.121Z,4.7
2019-05-03T01:40:02.182Z,4.6
2019-05-03T01:45:02.087Z,4.6
2019-05-03T01:50:02.818Z,4.6
2019-05-03T01:55:03.251Z,4.5
2019-05-03T02:00:02.786Z,4.5
2019-05-03T02:05:02.503Z,4.5
2019-05-03T02:10:02.768Z,4.5
2019-05-03T02:15:02.413Z,4.4
2019-05-03T02:20:02.262Z,4.4
2019-05-03T02:25:01.932Z,4.4
2019-05-03T02:30:02.945Z,4.4
2019-05-03T02:35:02.705Z,4.3
2019-05-03T02:40:04.134Z,4.3
2019-05-03T02:45:01.507Z,4.4
2019-05-03T02:50:01.704Z,4.4
2019-05-03T02:55:01.306Z,4.4
2019-05-03T03:00:01.702Z,4.4
2019-05-03T03:05:02.122Z,4.4
2019-05-03T03:10:01.798Z,4.3
2019-05-03T03:15:01.321Z,4.3
2019-05-03T03:20:01.368Z,4.2
2019-05-03T03:25:01.707Z,4.2
2019-05-03T03:30:01.731Z,4.2
2019-05-03T03:35:03.818Z,4.2
2019-05-03T03:40:01.516Z,4.2
2019-05-03T03:45:01.628Z,4.1
2019-05-03T03:50:01.985Z,4.2
2019-05-03T03:55:01.419Z,4.1
2019-05-03T04:00:02.413Z,4.2
2019-05-03T04:05:01.608Z,4.2
2019-05-03T04:10:01.926Z,4.3
2019-05-03T04:15:01.461Z,4.3
2019-05-03T04:20:01.671Z,4.4
2019-05-03T04:25:01.183Z,4.4
2019-05-03T04:30:01.948Z,4.5
2019-05-03T04:35:01.908Z,4.6
2019-05-03T04:40:01.694Z,5.2
2019-05-03T04:45:02.133Z,5.7
2019-05-03T04:50:05.354Z,6.2
2019-05-03T04:55:01.987Z,6.7
2019-05-03T05:00:02.073Z,6.7
2019-05-03T05:05:01.313Z,6.6
2019-05-03T05:10:02.130Z,6.4
2019-05-03T05:15:01.581Z,6.4
2019-05-03T05:20:02.069Z,6.3
2019-05-03T05:25:01.843Z,6.3
2019-05-03T05:30:01.510Z,6.3
2019-05-03T05:35:01.735Z,6.4
2019-05-03T05:40:01.527Z,6.5
2019-05-03T05:45:01.534Z,6.8
2019-05-03T05:50:02.132Z,6.9
2019-05-03T05:55:01.438Z,7.1
2019-05-03T06:00:02.188Z,7.2
2019-05-03T06:05:01.941Z,7.5
2019-05-03T06:10:01.518Z,7.7
2019-05-03T06:15:02.268Z,7.9
2019-05-03T06:20:02.328Z,8.1
2019-05-03T06:25:01.594Z,8.4
2019-05-03T06:30:01.783Z,8.7
2019-05-03T06:35:02.231Z,8.8
2019-05-03T06:40:01.649Z,9
2019-05-03T06:45:08.130Z,9.3
2019-05-03T06:50:02.270Z,9.6
2019-05-03T06:55:06.205Z,9.9
2019-05-03T07:00:01.747Z,10
2019-05-03T07:05:01.270Z,10.1
2019-05-03T07:10:01.429Z,10.3
2019-05-03T07:15:01.556Z,10.5
2019-05-03T07:20:02.038Z,10.7
2019-05-03T07:25:02.012Z,10.7
2019-05-03T07:30:01.654Z,10.9
2019-05-03T07:35:01.962Z,11.2
2019-05-03T07:40:02.073Z,11.4
2019-05-03T07:45:01.647Z,11.5
2019-05-03T07:50:01.394Z,11.6
2019-05-03T07:55:01.671Z,11.9
2019-05-03T08:00:01.759Z,12.1
2019-05-03T08:05:01.247Z,12.4
2019-05-03T08:10:01.797Z,12.3
2019-05-03T08:15:01.575Z,12.3
2019-05-03T08:20:01.802Z,12.7
2019-05-03T08:25:01.402Z,13.1
2019-05-03T08:30:01.442Z,13.3
2019-05-03T08:35:01.403Z,13.4
2019-05-03T08:40:02.134Z,13.3
2019-05-03T08:45:01.543Z,13
2019-05-03T08:50:01.857Z,13.1
2019-05-03T08:55:01.886Z,12.8
2019-05-03T09:00:01.919Z,13.3
2019-05-03T09:05:01.952Z,13.6
2019-05-03T09:10:02.161Z,13.7
2019-05-03T09:15:01.593Z,13.4
2019-05-03T09:20:01.575Z,12.8
2019-05-03T09:25:02.140Z,13
2019-05-03T09:30:01.906Z,13.4
2019-05-03T09:35:02.532Z,13.6
2019-05-03T09:40:02.209Z,12.6
2019-05-03T09:45:01.634Z,11.7
2019-05-03T09:50:02.164Z,12.7
2019-05-03T09:55:01.381Z,13.4
2019-05-03T10:00:01.994Z,14
2019-05-03T10:05:01.679Z,14.9
2019-05-03T10:10:01.715Z,15.6
2019-05-03T10:15:01.461Z,15.8
2019-05-03T10:20:02.096Z,15
2019-05-03T10:25:01.435Z,14.4
2019-05-03T10:30:10.372Z,13.6
2019-05-03T10:35:01.544Z,12.9
2019-05-03T10:40:05.027Z,12.4
2019-05-03T10:45:01.461Z,12.4
2019-05-03T10:50:02.199Z,12.5
2019-05-03T10:55:01.416Z,13.1
2019-05-03T11:00:01.518Z,13.7
2019-05-03T11:05:01.969Z,14.1
2019-05-03T11:10:01.688Z,14.6
2019-05-03T11:15:01.321Z,13.9
2019-05-03T11:20:01.940Z,13.6
2019-05-03T11:25:01.559Z,13.2
2019-05-03T11:30:01.325Z,12.4
2019-05-03T11:35:02.063Z,12
2019-05-03T11:40:01.830Z,12.2
2019-05-03T11:45:01.984Z,12.2
2019-05-03T11:50:01.373Z,11.4
2019-05-03T11:55:01.824Z,11.3
2019-05-03T12:00:01.953Z,11.2
2019-05-03T12:05:02.980Z,11.6
2019-05-03T12:10:02.226Z,12.6
2019-05-03T12:15:01.918Z,13.2
2019-05-03T12:20:02.778Z,13.3
2019-05-03T12:25:02.593Z,13.5
2019-05-03T12:30:01.817Z,13.5
2019-05-03T12:35:01.703Z,13.9
2019-05-03T12:40:02.166Z,14.1
2019-05-03T12:45:01.681Z,14.4
2019-05-03T12:50:02.241Z,14.3
2019-05-03T12:55:01.772Z,13.3
2019-05-03T13:00:01.735Z,12.7
2019-05-03T13:05:01.432Z,12.1
2019-05-03T13:10:01.995Z,11.6
2019-05-03T13:15:01.488Z,11
2019-05-03T13:20:01.460Z,11.8
2019-05-03T13:25:02.619Z,12.3
2019-05-03T13:30:02.226Z,11.8
2019-05-03T13:35:01.302Z,11.1
2019-05-03T13:40:01.242Z,10.7
2019-05-03T13:45:02.081Z,10.6
2019-05-03T13:50:01.750Z,10.6
2019-05-03T13:55:01.710Z,10.9
2019-05-03T14:00:01.949Z,11.4
2019-05-03T14:05:01.687Z,12.4
2019-05-03T14:10:02.077Z,12.8
2019-05-03T14:15:01.530Z,13
2019-05-03T14:20:01.611Z,13.3
2019-05-03T14:25:01.495Z,13
2019-05-03T14:30:01.517Z,12.9
2019-05-03T14:35:02.339Z,12.6
2019-05-03T14:40:01.796Z,11.8
2019-05-03T14:45:01.572Z,11.4
2019-05-03T14:50:01.463Z,11.4
2019-05-03T14:55:02.028Z,12.1
2019-05-03T15:00:01.720Z,12.2
2019-05-03T15:05:01.261Z,12.2
2019-05-03T15:10:01.965Z,11.9
2019-05-03T15:15:01.306Z,11.9
2019-05-03T15:20:01.528Z,11.6
2019-05-03T15:25:02.047Z,11.2
2019-05-03T15:30:01.225Z,10.3
2019-05-03T15:35:02.109Z,9.5
2019-05-03T15:40:01.596Z,9.2
2019-05-03T15:45:01.502Z,9.2
2019-05-03T15:50:01.929Z,9.3
2019-05-03T15:55:01.420Z,9.3
2019-05-03T16:00:02.075Z,9.3
2019-05-03T16:05:01.658Z,9.2
2019-05-03T16:10:01.695Z,9
2019-05-03T16:15:01.355Z,8.7
2019-05-03T16:20:01.265Z,8.6
2019-05-03T16:25:02.130Z,8.8
2019-05-03T16:30:01.624Z,9.2
2019-05-03T16:35:01.540Z,9.2
2019-05-03T16:40:01.373Z,9.1
2019-05-03T16:45:01.259Z,9.2
2019-05-03T16:50:02.165Z,9.1
2019-05-03T16:55:01.872Z,9.1
2019-05-03T17:00:01.673Z,9.1
2019-05-03T17:05:02.008Z,9.1
2019-05-03T17:10:01.767Z,9.1
2019-05-03T17:15:02.101Z,9.1
2019-05-03T17:20:02.324Z,9.2
2019-05-03T17:25:01.457Z,9.2
2019-05-03T17:30:01.700Z,9
2019-05-03T17:35:01.718Z,8.9
2019-05-03T17:40:01.634Z,8.6
2019-05-03T17:45:02.079Z,8.4
2019-05-03T17:50:01.665Z,8
2019-05-03T17:55:01.758Z,7.8
2019-05-03T18:00:02.060Z,7.7
2019-05-03T18:05:02.004Z,7.6
2019-05-03T18:10:01.690Z,7.5
2019-05-03T18:15:01.894Z,7.4
2019-05-03T18:20:02.148Z,7.3
2019-05-03T18:25:01.741Z,7.3
2019-05-03T18:30:01.458Z,7.2
2019-05-03T18:35:01.684Z,7.1
2019-05-03T18:40:02.657Z,7
2019-05-03T18:45:01.667Z,6.9
2019-05-03T18:50:01.429Z,6.8
2019-05-03T18:55:01.184Z,6.8
2019-05-03T19:00:01.652Z,6.7
2019-05-03T19:05:01.566Z,6.6
2019-05-03T19:10:01.719Z,6.5
2019-05-03T19:15:02.260Z,6.5
2019-05-03T19:20:01.381Z,6.5
2019-05-03T19:25:01.387Z,6.4
2019-05-03T19:30:02.118Z,6.3
2019-05-03T19:35:01.879Z,6.3
2019-05-03T19:40:01.242Z,6.2
2019-05-03T19:45:01.808Z,6.1
2019-05-03T19:50:02.572Z,6.1
2019-05-03T19:55:02.020Z,6
2019-05-03T20:00:01.353Z,5.9
2019-05-03T20:05:01.572Z,5.8
2019-05-03T20:10:01.826Z,5.7
2019-05-03T20:15:02.113Z,5.7
2019-05-03T20:20:01.573Z,5.6
2019-05-03T20:25:01.484Z,5.6
2019-05-03T20:30:01.361Z,5.5
2019-05-03T20:35:11.815Z,5.5
2019-05-03T20:40:01.628Z,5.4
2019-05-03T20:45:01.921Z,5.3
2019-05-03T20:50:01.447Z,5.3
2019-05-03T20:55:01.470Z,5.2
2019-05-03T21:00:01.376Z,5.1
2019-05-03T21:05:01.293Z,5
2019-05-03T21:10:01.848Z,4.9
2019-05-03T21:15:02.224Z,4.8
2019-05-03T21:20:01.802Z,4.8
2019-05-03T21:25:01.556Z,4.7
2019-05-03T21:30:01.981Z,4.6
2019-05-03T21:35:01.580Z,4.6
2019-05-03T21:40:05.023Z,4.5
2019-05-03T21:45:01.627Z,4.4
2019-05-03T21:50:02.149Z,4.3
2019-05-03T21:55:01.498Z,4.3
2019-05-03T22:00:01.472Z,4.2
2019-05-03T22:05:01.271Z,4.2
2019-05-03T22:10:01.913Z,4.2
2019-05-03T22:15:02.487Z,4.1
2019-05-03T22:20:01.951Z,4.1
2019-05-03T22:25:01.902Z,4.1
2019-05-03T22:30:01.494Z,4.1
2019-05-03T22:35:01.460Z,4.1
2019-05-03T22:40:01.167Z,4.1
2019-05-03T22:45:01.916Z,4
2019-05-03T22:50:02.222Z,4
2019-05-03T22:55:01.830Z,4
2019-05-03T23:00:02.038Z,4
2019-05-03T23:05:04.533Z,3.9
2019-05-03T23:10:01.718Z,3.9
2019-05-03T23:15:01.823Z,3.9
2019-05-03T23:20:01.535Z,3.9
2019-05-03T23:25:01.566Z,3.9
2019-05-03T23:30:01.394Z,3.9
2019-05-03T23:35:01.171Z,3.9
2019-05-03T23:40:04.307Z,3.9
2019-05-03T23:45:02.389Z,3.8
2019-05-03T23:50:01.634Z,3.8
2019-05-03T23:55:01.507Z,3.8
